createdAt,value
2019-05-10T00:04:02.174Z,9.20
2019-05-10T00:09:06.628Z,8.30
2019-05-10T00:14:12.197Z,7.10
2019-05-10T00:19:16.888Z,6.93
2019-05-10T00:24:22.914Z,6.37
2019-05-10T00:29:27.233Z,7.30
2019-05-10T00:34:32.309Z,7.17
2019-05-10T00:39:37.037Z,7.67
2019-05-10T00:44:41.299Z,6.97
2019-05-10T00:49:47.970Z,6.47
2019-05-10T00:54:53.641Z,6.00
2019-05-10T00:59:57.679Z,5.57
2019-05-10T01:05:01.777Z,4.83
2019-05-10T01:10:06.906Z,5.50
2019-05-10T01:15:11.581Z,5.60
2019-05-10T01:20:15.706Z,5.03
2019-05-10T01:25:34.095Z,5.23
2019-05-10T01:30:25.597Z,5.43
2019-05-10T01:35:30.464Z,5.40
2019-05-10T01:40:34.942Z,4.33
2019-05-10T01:45:40.065Z,4.47
2019-05-10T01:50:44.829Z,4.80
2019-05-10T01:55:52.509Z,4.87
2019-05-10T02:00:54.496Z,4.53
2019-05-10T02:05:59.184Z,5.03
2019-05-10T02:11:04.016Z,5.53
2019-05-10T02:16:11.606Z,5.43
2019-05-10T02:21:16.499Z,5.93
2019-05-10T02:26:21.765Z,5.23
2019-05-10T02:31:26.679Z,6.90
2019-05-10T02:36:31.512Z,5.43
2019-05-10T02:41:35.540Z,5.03
2019-05-10T02:46:39.999Z,6.07
2019-05-10T02:51:45.132Z,5.40
2019-05-10T02:56:52.787Z,5.00
2019-05-10T03:01:58.329Z,5.20
2019-05-10T03:07:05.213Z,5.17
2019-05-10T03:12:21.526Z,5.57
2019-05-10T03:17:27.225Z,4.87
2019-05-10T03:22:36.786Z,5.77
2019-05-10T03:27:41.901Z,6.00
2019-05-10T03:32:50.279Z,5.10
2019-05-10T03:37:54.413Z,5.20
2019-05-10T03:42:58.909Z,5.47
2019-05-10T03:48:03.429Z,5.43
2019-05-10T03:53:12.870Z,4.60
2019-05-10T03:58:17.121Z,4.23
2019-05-10T04:03:22.171Z,4.87
2019-05-10T04:08:26.190Z,4.67
2019-05-10T04:13:31.401Z,4.33
2019-05-10T04:18:35.403Z,4.10
2019-05-10T04:23:39.398Z,4.13
2019-05-10T04:28:47.321Z,4.03
2019-05-10T04:33:52.646Z,4.00
2019-05-10T04:38:57.688Z,4.40
2019-05-10T04:44:06.745Z,3.97
2019-05-10T04:49:10.809Z,3.93
2019-05-10T04:54:15.295Z,5.17
2019-05-10T04:59:23.170Z,4.53
2019-05-10T05:04:27.599Z,4.63
2019-05-10T05:09:32.481Z,4.00
2019-05-10T05:14:36.959Z,4.87
2019-05-10T05:19:42.130Z,4.03
2019-05-10T05:24:46.474Z,5.00
2019-05-10T05:29:51.415Z,3.93
2019-05-10T05:34:59.626Z,4.23
2019-05-10T05:40:04.194Z,4.90
2019-05-10T05:45:09.622Z,5.60
2019-05-10T05:50:18.131Z,5.23
2019-05-10T05:55:23.361Z,5.40
2019-05-10T06:00:28.585Z,5.00
2019-05-10T06:05:38.069Z,5.47
2019-05-10T06:10:44.114Z,5.30
2019-05-10T06:15:49.054Z,4.93
2019-05-10T06:20:53.112Z,5.07
2019-05-10T06:25:57.787Z,5.13
2019-05-10T06:31:02.793Z,5.40
2019-05-10T06:36:07.524Z,5.40
2019-05-10T06:41:16.755Z,5.50
2019-05-10T06:46:18.059Z,4.87
2019-05-10T06:51:23.172Z,5.70
2019-05-10T06:56:31.345Z,6.00
2019-05-10T07:01:38.398Z,4.83
2019-05-10T07:06:42.162Z,5.03
2019-05-10T07:11:50.181Z,4.70
2019-05-10T07:16:56.574Z,5.70
2019-05-10T07:22:01.014Z,4.87
2019-05-10T07:27:09.507Z,5.20
2019-05-10T07:32:22.306Z,4.97
2019-05-10T07:37:25.058Z,4.80
2019-05-10T07:42:30.007Z,5.77
2019-05-10T07:47:34.833Z,5.30
2019-05-10T07:52:43.324Z,5.73
2019-05-10T07:57:46.780Z,5.30
2019-05-10T08:03:07.534Z,5.67
2019-05-10T08:08:02.546Z,6.00
2019-05-10T08:13:08.456Z,5.57
2019-05-10T08:18:23.559Z,6.23
2019-05-10T08:23:27.801Z,6.47
2019-05-10T08:28:36.060Z,5.93
2019-05-10T08:33:46.318Z,5.60
2019-05-10T08:38:58.945Z,7.23
2019-05-10T08:43:54.030Z,7.73
2019-05-10T08:48:58.314Z,6.27
2019-05-10T08:54:04.150Z,7.03
2019-05-10T08:59:09.401Z,7.70
2019-05-10T09:04:14.766Z,6.50
2019-05-10T09:09:19.334Z,7.60
2019-05-10T09:14:24.205Z,7.00
2019-05-10T09:19:37.401Z,8.00
2019-05-10T09:24:41.095Z,7.60
2019-05-10T09:29:45.465Z,7.47
2019-05-10T09:34:54.101Z,7.43
2019-05-10T09:40:05.857Z,8.70
2019-05-10T09:45:04.524Z,8.67
2019-05-10T09:50:12.620Z,9.13
2019-05-10T09:55:17.498Z,9.07
2019-05-10T10:00:32.961Z,7.87
2019-05-10T10:05:39.859Z,7.37
2019-05-10T10:10:42.861Z,7.50
2019-05-10T10:15:51.932Z,9.07
2019-05-10T10:20:53.215Z,8.07
2019-05-10T10:25:58.115Z,7.27
2019-05-10T10:31:05.450Z,8.97
2019-05-10T10:36:10.690Z,8.30
2019-05-10T10:41:25.628Z,8.63
2019-05-10T10:46:28.293Z,9.63
2019-05-10T10:51:34.562Z,9.37
2019-05-10T10:56:39.049Z,7.57
2019-05-10T11:01:50.337Z,8.03
2019-05-10T11:07:08.849Z,8.00
2019-05-10T11:11:57.774Z,8.63
2019-05-10T11:17:02.154Z,8.47
2019-05-10T11:22:09.472Z,7.93
2019-05-10T11:27:17.201Z,8.03
2019-05-10T11:32:18.104Z,8.13
2019-05-10T11:37:31.041Z,7.17
2019-05-10T11:42:30.838Z,8.53
2019-05-10T11:47:34.439Z,9.47
2019-05-10T11:52:40.727Z,8.10
2019-05-10T11:57:49.932Z,8.67
2019-05-10T12:03:11.347Z,9.33
2019-05-10T12:07:56.619Z,9.67
2019-05-10T12:13:11.321Z,9.37
2019-05-10T12:18:08.126Z,13.37
2019-05-10T12:23:21.950Z,14.80
2019-05-10T12:28:24.059Z,16.60
2019-05-10T12:33:28.214Z,13.97
2019-05-10T12:38:35.660Z,10.43
2019-05-10T12:43:43.143Z,11.97
2019-05-10T12:48:45.101Z,11.37
2019-05-10T12:53:52.066Z,9.57
2019-05-10T12:58:57.558Z,8.43
2019-05-10T13:04:02.139Z,10.07
2019-05-10T13:09:07.009Z,9.07
2019-05-10T13:14:11.137Z,10.30
2019-05-10T13:19:20.158Z,10.83
2019-05-10T13:24:21.485Z,8.07
2019-05-10T13:29:28.891Z,8.70
2019-05-10T13:34:33.024Z,8.30
2019-05-10T13:39:40.842Z,8.07
2019-05-10T13:44:44.990Z,8.97
2019-05-10T13:49:49.602Z,10.30
2019-05-10T13:54:53.648Z,7.47
2019-05-10T13:59:57.830Z,6.87
2019-05-10T14:05:02.133Z,9.07
2019-05-10T14:10:06.822Z,7.57
2019-05-10T14:15:13.661Z,7.73
2019-05-10T14:20:25.119Z,8.43
2019-05-10T14:25:29.332Z,9.97
2019-05-10T14:30:33.422Z,10.43
2019-05-10T14:35:38.630Z,9.80
2019-05-10T14:40:44.291Z,9.80
2019-05-10T14:45:48.577Z,11.63
2019-05-10T14:50:54.650Z,11.07
2019-05-10T14:56:00.145Z,9.20
2019-05-10T15:01:07.605Z,12.07
2019-05-10T15:06:12.074Z,11.60
2019-05-10T15:11:16.226Z,13.43
2019-05-10T15:16:27.397Z,15.27
2019-05-10T15:21:26.072Z,14.13
2019-05-10T15:26:30.778Z,13.27
2019-05-10T15:31:35.252Z,14.13
2019-05-10T15:36:40.224Z,12.87
2019-05-10T15:41:46.941Z,12.33
2019-05-10T15:46:51.772Z,12.43
2019-05-10T15:52:16.198Z,10.20
2019-05-10T15:57:07.703Z,11.37
2019-05-10T16:02:12.867Z,10.40
2019-05-10T16:07:18.055Z,9.63
2019-05-10T16:12:28.362Z,9.97
2019-05-10T16:17:33.089Z,9.20
2019-05-10T16:22:37.298Z,11.10
2019-05-10T16:27:44.889Z,9.90
2019-05-10T16:32:49.569Z,11.37
2019-05-10T16:37:53.879Z,12.17
2019-05-10T16:42:59.192Z,11.80
2019-05-10T16:48:05.786Z,9.47
2019-05-10T16:53:09.155Z,10.17
2019-05-10T16:58:17.580Z,10.20
2019-05-10T17:03:20.643Z,9.23
2019-05-10T17:08:30.786Z,10.50
2019-05-10T17:13:36.312Z,12.80
2019-05-10T17:18:40.404Z,12.63
2019-05-10T17:23:46.736Z,14.80
2019-05-10T17:28:51.885Z,12.40
2019-05-10T17:33:58.914Z,15.13
2019-05-10T17:39:04.819Z,14.90
2019-05-10T17:44:10.122Z,16.27
2019-05-10T17:49:14.414Z,17.40
2019-05-10T17:54:19.122Z,17.23
2019-05-10T17:59:24.178Z,16.63
2019-05-10T18:04:28.959Z,16.87
2019-05-10T18:09:33.391Z,16.60
2019-05-10T18:14:37.699Z,15.57
2019-05-10T18:19:42.340Z,14.30
2019-05-10T18:24:46.937Z,15.33
2019-05-10T18:29:50.995Z,15.53
2019-05-10T18:34:55.732Z,13.07
2019-05-10T18:40:02.278Z,14.60
2019-05-10T18:45:07.893Z,16.63
2019-05-10T18:50:13.094Z,15.70
2019-05-10T18:55:17.802Z,15.00
2019-05-10T19:00:25.140Z,14.27
2019-05-10T19:05:33.019Z,14.37
2019-05-10T19:10:36.712Z,17.23
2019-05-10T19:15:46.125Z,15.97
2019-05-10T19:20:48.816Z,16.60
2019-05-10T19:25:53.968Z,15.40
2019-05-10T19:30:59.123Z,16.77
2019-05-10T19:36:12.208Z,17.67
2019-05-10T19:41:09.579Z,16.00
2019-05-10T19:46:14.625Z,16.47
2019-05-10T19:51:18.671Z,17.27
2019-05-10T19:56:23.249Z,16.93
2019-05-10T20:01:27.282Z,16.67
2019-05-10T20:06:31.374Z,16.07
2019-05-10T20:11:35.550Z,15.10
2019-05-10T20:16:51.941Z,13.63
2019-05-10T20:21:45.450Z,14.40
2019-05-10T20:26:49.574Z,12.60
2019-05-10T20:31:53.686Z,13.63
2019-05-10T20:36:57.644Z,15.67
2019-05-10T20:42:01.644Z,14.07
2019-05-10T20:47:06.504Z,13.00
2019-05-10T20:52:10.502Z,11.80
2019-05-10T20:57:14.464Z,11.03
2019-05-10T21:02:18.557Z,12.20
2019-05-10T21:07:22.626Z,12.47
2019-05-10T21:12:26.680Z,11.13
2019-05-10T21:17:30.735Z,15.37
2019-05-10T21:22:34.797Z,11.57
2019-05-10T21:27:38.844Z,13.53
2019-05-10T21:32:42.890Z,14.63
2019-05-10T21:37:46.919Z,14.03
2019-05-10T21:42:50.975Z,15.23
2019-05-10T21:47:56.013Z,12.83
2019-05-10T21:53:00.062Z,12.03
2019-05-10T21:58:04.051Z,10.93
2019-05-10T22:03:08.061Z,12.23
2019-05-10T22:08:12.178Z,11.20
2019-05-10T22:13:16.169Z,13.03
2019-05-10T22:18:20.226Z,10.73
2019-05-10T22:23:24.394Z,9.53
2019-05-10T22:28:28.466Z,9.83
2019-05-10T22:33:32.539Z,8.67
2019-05-10T22:38:36.545Z,9.03
2019-05-10T22:43:40.568Z,12.53
2019-05-10T22:48:44.706Z,11.53
2019-05-10T22:53:59.529Z,11.63
2019-05-10T22:58:54.482Z,10.90
2019-05-10T23:03:58.643Z,11.20
2019-05-10T23:09:02.622Z,10.50
2019-05-10T23:14:06.569Z,10.43
2019-05-10T23:19:10.642Z,9.50
2019-05-10T23:24:14.667Z,9.97
2019-05-10T23:29:18.690Z,7.90
2019-05-10T23:34:22.722Z,9.60
2019-05-10T23:39:39.691Z,10.40
2019-05-10T23:44:32.695Z,10.60
2019-05-10T23:49:37.742Z,8.40
2019-05-10T23:54:41.777Z,8.47
2019-05-10T23:59:45.791Z,10.00
